createdAt,value
2022-12-05T00:01:54.190Z,24.80
2022-12-05T00:04:26.509Z,20.80
2022-12-05T00:06:58.709Z,20.00
2022-12-05T00:09:31.361Z,19.40
2022-12-05T00:12:03.482Z,22.70
2022-12-05T00:14:35.567Z,18.80
2022-12-05T00:17:07.704Z,20.10
2022-12-05T00:19:40.750Z,20.20
2022-12-05T00:22:12.942Z,18.50
2022-12-05T00:24:44.959Z,20.50
2022-12-05T00:27:17.025Z,17.00
2022-12-05T00:29:49.499Z,18.00
2022-12-05T00:32:21.644Z,17.40
2022-12-05T00:34:53.761Z,17.10
2022-12-05T00:37:26.133Z,16.10
2022-12-05T00:39:58.487Z,18.30
2022-12-05T00:42:30.777Z,16.90
2022-12-05T00:45:03.022Z,19.40
2022-12-05T00:47:37.724Z,17.70
2022-12-05T00:50:11.576Z,17.40
2022-12-05T00:52:43.777Z,15.90
2022-12-05T00:55:15.968Z,15.30
2022-12-05T00:57:48.105Z,16.50
2022-12-05T01:00:22.185Z,15.10
2022-12-05T01:02:54.346Z,16.00
2022-12-05T01:05:26.510Z,14.20
2022-12-05T01:07:58.772Z,14.90
2022-12-05T01:10:31.025Z,14.60
2022-12-05T01:13:03.196Z,15.50
2022-12-05T01:15:39.100Z,15.30
2022-12-05T01:18:11.575Z,17.10
2022-12-05T01:20:44.384Z,16.90
2022-12-05T01:23:17.017Z,15.50
2022-12-05T01:25:51.411Z,16.30
2022-12-05T01:28:23.957Z,16.10
2022-12-05T01:30:56.077Z,15.40
2022-12-05T01:33:28.168Z,15.30
2022-12-05T01:36:00.312Z,18.00
2022-12-05T01:38:32.609Z,16.40
2022-12-05T01:41:07.643Z,16.90
2022-12-05T01:44:01.650Z,16.80
2022-12-05T01:46:36.222Z,18.60
2022-12-05T01:49:12.078Z,16.50
2022-12-05T01:51:47.168Z,15.20
2022-12-05T01:54:20.843Z,15.60
2022-12-05T01:56:58.335Z,25.30
2022-12-05T01:59:35.420Z,18.10
2022-12-05T02:02:08.584Z,29.90
2022-12-05T02:04:47.512Z,17.20
2022-12-05T02:07:20.579Z,26.80
2022-12-05T02:09:53.666Z,20.00
2022-12-05T02:12:26.657Z,31.00
2022-12-05T02:15:13.544Z,29.30
2022-12-05T02:17:54.850Z,27.20
2022-12-05T02:20:39.844Z,23.90
2022-12-05T02:23:30.546Z,19.60
2022-12-05T02:26:40.220Z,15.80
2022-12-05T02:29:33.100Z,12.70
2022-12-05T02:32:12.204Z,15.50
2022-12-05T02:34:54.304Z,15.70
2022-12-05T02:37:33.030Z,21.00
2022-12-05T02:40:12.235Z,15.20
2022-12-05T02:42:52.520Z,12.50
2022-12-05T02:45:29.266Z,17.00
2022-12-05T02:48:02.719Z,20.70
2022-12-05T02:50:38.906Z,14.00
2022-12-05T02:53:14.430Z,14.20
2022-12-05T02:55:47.671Z,23.00
2022-12-05T02:58:24.093Z,17.30
2022-12-05T03:00:59.379Z,17.00
2022-12-05T03:03:34.320Z,23.10
2022-12-05T03:06:13.546Z,21.90
2022-12-05T03:08:50.374Z,15.30
2022-12-05T03:11:22.569Z,22.10
2022-12-05T03:13:57.473Z,16.40
2022-12-05T03:16:35.218Z,14.50
2022-12-05T03:19:13.935Z,16.00
2022-12-05T03:21:53.563Z,15.80
2022-12-05T03:24:25.836Z,26.40
2022-12-05T03:27:08.528Z,13.80
2022-12-05T03:29:47.772Z,30.40
2022-12-05T03:32:25.800Z,25.40
2022-12-05T03:35:09.760Z,18.20
2022-12-05T03:37:49.105Z,16.40
2022-12-05T03:40:28.893Z,15.90
2022-12-05T03:43:10.254Z,14.40
2022-12-05T03:45:49.403Z,17.70
2022-12-05T03:48:31.229Z,21.70
2022-12-05T03:51:06.110Z,24.10
2022-12-05T03:53:43.270Z,18.60
2022-12-05T03:56:21.379Z,15.20
2022-12-05T03:58:58.282Z,15.50
2022-12-05T04:01:32.326Z,13.40
2022-12-05T04:04:09.608Z,16.50
2022-12-05T04:06:46.844Z,19.40
2022-12-05T04:09:25.592Z,22.10
2022-12-05T04:12:02.910Z,17.90
2022-12-05T04:14:40.820Z,19.90
2022-12-05T04:17:19.521Z,25.40
2022-12-05T04:20:15.148Z,17.90
2022-12-05T04:22:47.855Z,26.00
2022-12-05T04:25:36.367Z,28.40
2022-12-05T04:28:22.210Z,26.30
2022-12-05T04:31:04.228Z,29.30
2022-12-05T04:33:43.454Z,28.60
2022-12-05T04:36:21.623Z,21.30
2022-12-05T04:38:56.492Z,15.00
2022-12-05T04:41:32.782Z,13.40
2022-12-05T04:44:09.867Z,15.00
2022-12-05T04:46:45.881Z,15.70
2022-12-05T04:49:22.933Z,17.10
2022-12-05T04:51:58.763Z,14.40
2022-12-05T04:54:33.438Z,13.70
2022-12-05T04:57:14.112Z,12.90
2022-12-05T04:59:46.606Z,13.60
2022-12-05T05:02:25.861Z,13.60
2022-12-05T05:05:02.668Z,14.90
2022-12-05T05:07:43.560Z,14.70
2022-12-05T05:10:20.292Z,26.20
2022-12-05T05:12:52.433Z,17.80
2022-12-05T05:15:24.635Z,15.60
2022-12-05T05:17:56.977Z,15.20
2022-12-05T05:20:29.685Z,15.70
2022-12-05T05:23:01.926Z,20.80
2022-12-05T05:25:34.503Z,15.60
2022-12-05T05:28:07.112Z,16.00
2022-12-05T05:30:39.276Z,17.50
2022-12-05T05:33:11.394Z,18.00
2022-12-05T05:35:43.817Z,24.10
2022-12-05T05:38:15.909Z,29.70
2022-12-05T05:40:48.078Z,23.90
2022-12-05T05:43:20.171Z,31.70
2022-12-05T05:45:52.263Z,49.40
2022-12-05T05:48:24.453Z,26.20
2022-12-05T05:50:56.669Z,34.40
2022-12-05T05:53:28.871Z,27.40
2022-12-05T05:56:05.693Z,31.60
2022-12-05T05:58:38.680Z,28.90
2022-12-05T06:01:12.770Z,26.30
2022-12-05T06:03:45.039Z,18.50
2022-12-05T06:06:17.489Z,17.70
2022-12-05T06:08:50.582Z,21.00
2022-12-05T06:11:26.366Z,27.20
2022-12-05T06:14:02.230Z,73.80
2022-12-05T06:19:05.663Z,28.00
2022-12-05T06:21:37.718Z,24.90
2022-12-05T06:24:10.828Z,31.90
2022-12-05T06:26:43.749Z,23.50
2022-12-05T06:29:15.836Z,35.40
2022-12-05T06:31:48.367Z,23.50
2022-12-05T06:34:20.812Z,38.10
2022-12-05T06:36:52.955Z,27.40
2022-12-05T06:39:25.251Z,26.60
2022-12-05T06:41:57.418Z,17.50
2022-12-05T06:44:29.539Z,15.10
2022-12-05T06:47:01.758Z,26.10
2022-12-05T06:49:37.812Z,24.90
2022-12-05T06:52:10.492Z,24.10
2022-12-05T06:54:42.715Z,24.50
2022-12-05T06:57:15.242Z,27.20
2022-12-05T06:59:47.359Z,38.60
2022-12-05T07:02:19.557Z,47.30
2022-12-05T07:04:51.696Z,36.10
2022-12-05T07:07:23.777Z,41.00
2022-12-05T07:09:56.050Z,37.50
2022-12-05T07:12:28.532Z,43.70
2022-12-05T07:15:00.598Z,53.80
2022-12-05T07:17:36.636Z,53.90
2022-12-05T07:20:12.772Z,34.20
2022-12-05T07:22:45.142Z,47.40
2022-12-05T07:25:17.438Z,47.40
2022-12-05T07:27:49.508Z,35.80
2022-12-05T07:30:21.673Z,34.90
2022-12-05T07:32:54.023Z,33.40
2022-12-05T07:35:26.136Z,50.80
2022-12-05T07:37:58.920Z,69.00
2022-12-05T07:40:31.470Z,54.80
2022-12-05T07:43:03.588Z,40.00
2022-12-05T07:45:36.701Z,29.70
2022-12-05T07:48:09.228Z,42.10
2022-12-05T07:50:42.320Z,50.20
2022-12-05T07:53:14.385Z,34.30
2022-12-05T07:55:46.477Z,26.70
2022-12-05T07:58:18.624Z,30.40
2022-12-05T08:00:50.765Z,40.60
2022-12-05T08:03:22.823Z,27.90
2022-12-05T08:05:54.971Z,21.30
2022-12-05T08:08:27.139Z,25.00
2022-12-05T08:11:03.536Z,29.00
2022-12-05T08:13:36.315Z,24.10
2022-12-05T08:16:12.103Z,27.90
2022-12-05T08:18:46.525Z,28.50
2022-12-05T08:21:20.703Z,20.70
2022-12-05T08:23:53.241Z,19.70
2022-12-05T08:26:27.845Z,35.80
2022-12-05T08:29:02.124Z,27.70
2022-12-05T08:31:36.339Z,22.20
2022-12-05T08:34:08.558Z,25.40
2022-12-05T08:36:41.517Z,25.70
2022-12-05T08:39:17.298Z,23.90
2022-12-05T08:41:50.721Z,21.90
2022-12-05T08:44:22.840Z,38.30
2022-12-05T08:46:55.032Z,30.30
2022-12-05T08:49:28.378Z,22.30
2022-12-05T08:52:00.624Z,22.20
2022-12-05T08:54:32.919Z,24.10
2022-12-05T08:57:05.143Z,22.70
2022-12-05T08:59:37.359Z,23.20
2022-12-05T09:02:09.610Z,24.30
2022-12-05T09:04:42.162Z,32.30
2022-12-05T09:07:14.274Z,28.30
2022-12-05T09:09:46.640Z,24.50
2022-12-05T09:12:18.993Z,16.80
2022-12-05T09:14:51.650Z,18.40
2022-12-05T09:17:24.636Z,26.60
2022-12-05T09:19:56.828Z,20.90
2022-12-05T09:22:28.947Z,27.50
2022-12-05T09:25:01.755Z,23.60
2022-12-05T09:27:33.870Z,19.20
2022-12-05T09:30:09.452Z,19.50
2022-12-05T09:32:42.845Z,19.10
2022-12-05T09:35:15.036Z,19.50
2022-12-05T09:37:47.203Z,18.20
2022-12-05T09:40:21.139Z,24.10
2022-12-05T09:43:05.593Z,23.50
2022-12-05T09:45:41.347Z,23.10
2022-12-05T09:48:17.431Z,29.30
2022-12-05T09:50:55.691Z,23.90
2022-12-05T09:53:31.830Z,29.80
2022-12-05T09:56:13.673Z,33.20
2022-12-05T09:58:48.606Z,25.90
2022-12-05T10:01:42.063Z,25.20
2022-12-05T10:04:28.710Z,24.20
2022-12-05T10:07:08.864Z,21.30
2022-12-05T10:09:55.041Z,23.20
2022-12-05T10:12:44.274Z,24.10
2022-12-05T10:15:21.437Z,21.00
2022-12-05T10:18:00.543Z,21.40
2022-12-05T10:20:37.603Z,22.60
2022-12-05T10:23:34.709Z,18.80
2022-12-05T10:26:14.552Z,17.50
2022-12-05T10:28:53.456Z,18.90
2022-12-05T10:31:30.730Z,21.10
2022-12-05T10:34:11.664Z,19.70
2022-12-05T10:36:45.653Z,19.20
2022-12-05T10:39:17.721Z,18.60
2022-12-05T10:41:49.938Z,17.10
2022-12-05T10:44:22.385Z,18.60
2022-12-05T10:46:54.569Z,14.80
2022-12-05T10:49:27.952Z,16.40
2022-12-05T10:52:01.784Z,19.70
2022-12-05T10:54:39.637Z,25.20
2022-12-05T10:57:24.604Z,27.30
2022-12-05T10:59:57.589Z,21.10
2022-12-05T11:02:33.419Z,21.30
2022-12-05T11:07:48.356Z,16.70
2022-12-05T11:10:27.411Z,17.10
2022-12-05T11:13:01.062Z,16.80
2022-12-05T11:15:33.972Z,18.20
2022-12-05T11:21:14.878Z,19.40
2022-12-05T11:23:47.090Z,22.30
2022-12-05T11:26:35.794Z,22.60
2022-12-05T11:29:32.077Z,26.10
2022-12-05T11:32:05.453Z,29.80
2022-12-05T11:34:43.864Z,23.80
2022-12-05T11:37:21.589Z,27.30
2022-12-05T11:39:54.389Z,28.00
2022-12-05T11:42:37.600Z,30.50
2022-12-05T11:45:31.248Z,27.10
2022-12-05T11:48:18.771Z,22.60
2022-12-05T11:51:03.126Z,27.10
2022-12-05T11:53:52.575Z,25.70
2022-12-05T11:56:38.471Z,23.30
2022-12-05T11:59:30.908Z,22.30
2022-12-05T12:02:16.456Z,24.80
2022-12-05T12:04:53.907Z,29.80
2022-12-05T12:07:37.987Z,30.60
2022-12-05T12:10:19.747Z,29.00
2022-12-05T12:13:06.635Z,32.30
2022-12-05T12:15:52.424Z,26.00
2022-12-05T12:18:49.453Z,31.70
2022-12-05T12:21:26.866Z,33.90
2022-12-05T12:24:12.782Z,29.80
2022-12-05T12:26:58.299Z,25.80
2022-12-05T12:29:44.510Z,29.20
2022-12-05T12:32:31.582Z,30.10
2022-12-05T12:35:19.081Z,25.60
2022-12-05T12:38:04.690Z,28.20
2022-12-05T12:40:47.662Z,22.30
2022-12-05T12:43:53.249Z,27.90
2022-12-05T12:46:37.862Z,27.70
2022-12-05T12:49:31.597Z,31.20
2022-12-05T12:52:06.606Z,40.20
2022-12-05T12:57:56.152Z,53.60
2022-12-05T13:00:38.860Z,36.50
2022-12-05T13:03:18.255Z,31.60
2022-12-05T13:05:55.233Z,32.40
2022-12-05T13:08:35.188Z,32.50
2022-12-05T13:11:12.684Z,28.30
2022-12-05T13:13:48.760Z,28.50
2022-12-05T13:16:28.086Z,29.50
2022-12-05T13:19:01.448Z,26.20
2022-12-05T13:21:34.258Z,26.60
2022-12-05T13:24:08.524Z,41.00
2022-12-05T13:26:49.681Z,31.30
2022-12-05T13:29:33.826Z,36.60
2022-12-05T13:32:07.175Z,46.50
2022-12-05T13:34:51.681Z,45.70
2022-12-05T13:37:44.968Z,35.10
2022-12-05T13:40:47.911Z,35.50
2022-12-05T13:43:23.258Z,29.50
2022-12-05T13:46:14.187Z,29.20
2022-12-05T13:48:50.116Z,32.60
2022-12-05T13:51:32.088Z,27.30
2022-12-05T13:54:12.556Z,36.70
2022-12-05T13:56:54.270Z,29.90
2022-12-05T14:00:06.045Z,29.30
2022-12-05T14:02:55.075Z,28.60
2022-12-05T14:05:41.841Z,31.30
2022-12-05T14:08:47.902Z,33.20
2022-12-05T14:11:19.845Z,39.40
2022-12-05T14:13:51.936Z,42.90
2022-12-05T14:16:45.222Z,36.20
2022-12-05T14:19:48.826Z,28.90
2022-12-05T14:22:43.728Z,28.20
2022-12-05T14:25:30.769Z,39.10
2022-12-05T14:28:16.940Z,48.30
2022-12-05T14:31:03.110Z,33.20
2022-12-05T14:33:35.619Z,30.20
2022-12-05T14:36:17.126Z,31.70
2022-12-05T14:38:49.140Z,37.50
2022-12-05T14:41:36.345Z,30.60
2022-12-05T14:44:20.748Z,42.80
2022-12-05T14:46:52.722Z,45.60
2022-12-05T14:50:13.897Z,63.50
2022-12-05T14:52:47.218Z,47.20
2022-12-05T14:55:25.078Z,35.60
2022-12-05T14:57:59.567Z,43.50
2022-12-05T15:00:31.889Z,33.80
2022-12-05T15:03:05.978Z,43.10
2022-12-05T15:05:40.233Z,48.90
2022-12-05T15:08:17.018Z,40.70
2022-12-05T15:10:52.722Z,54.80
2022-12-05T15:13:28.678Z,47.80
2022-12-05T15:16:07.185Z,45.80
2022-12-05T15:18:44.376Z,40.00
2022-12-05T15:21:27.787Z,58.60
2022-12-05T15:24:01.806Z,47.50
2022-12-05T15:26:49.157Z,51.60
2022-12-05T15:29:29.279Z,40.70
2022-12-05T15:32:03.444Z,63.80
2022-12-05T15:34:42.037Z,44.60
2022-12-05T15:37:18.200Z,48.00
2022-12-05T15:39:57.333Z,75.70
2022-12-05T15:42:32.271Z,113.60
2022-12-05T15:45:22.198Z,60.20
2022-12-05T15:47:56.925Z,89.90
2022-12-05T15:50:35.232Z,57.10
2022-12-05T15:53:14.729Z,49.00
2022-12-05T15:55:51.866Z,46.10
2022-12-05T15:58:28.588Z,47.50
2022-12-05T16:01:06.871Z,64.50
2022-12-05T16:03:46.646Z,82.70
2022-12-05T16:06:23.576Z,44.70
2022-12-05T16:08:56.717Z,39.90
2022-12-05T16:11:28.912Z,33.30
2022-12-05T16:14:04.420Z,39.50
2022-12-05T16:16:39.837Z,57.50
2022-12-05T16:19:22.420Z,88.30
2022-12-05T16:22:08.642Z,48.70
2022-12-05T16:24:44.670Z,62.30
2022-12-05T16:27:19.427Z,47.80
2022-12-05T16:30:11.127Z,57.10
2022-12-05T16:32:44.957Z,78.00
2022-12-05T16:35:33.896Z,159.80
2022-12-05T16:38:14.652Z,51.50
2022-12-05T16:40:56.971Z,42.20
2022-12-05T16:43:46.828Z,33.00
2022-12-05T16:46:56.094Z,49.40
2022-12-05T16:49:45.613Z,44.20
2022-12-05T16:52:19.015Z,36.70
2022-12-05T16:54:52.359Z,42.90
2022-12-05T16:57:24.577Z,35.50
2022-12-05T16:59:58.077Z,60.30
2022-12-05T17:02:30.037Z,58.40
2022-12-05T17:05:08.073Z,53.70
2022-12-05T17:07:40.018Z,50.00
2022-12-05T17:10:12.685Z,51.90
2022-12-05T17:12:47.772Z,50.30
2022-12-05T17:15:21.878Z,53.40
2022-12-05T17:17:54.034Z,78.30
2022-12-05T17:20:25.970Z,52.90
2022-12-05T17:22:57.887Z,47.50
2022-12-05T17:25:36.428Z,42.50
2022-12-05T17:28:08.364Z,41.70
2022-12-05T17:30:40.892Z,47.30
2022-12-05T17:33:15.209Z,42.20
2022-12-05T17:35:47.281Z,40.90
2022-12-05T17:38:19.263Z,38.80
2022-12-05T17:40:51.178Z,43.90
2022-12-05T17:43:25.487Z,46.30
2022-12-05T17:46:00.482Z,41.30
2022-12-05T17:48:32.449Z,52.40
2022-12-05T17:51:06.734Z,69.20
2022-12-05T17:53:39.060Z,81.90
2022-12-05T17:56:11.436Z,105.90
2022-12-05T17:58:43.464Z,74.70
2022-12-05T18:01:18.771Z,73.10
2022-12-05T18:03:51.571Z,131.10
2022-12-05T18:06:23.533Z,99.30
2022-12-05T18:08:55.625Z,69.50
2022-12-05T18:11:27.591Z,64.80
2022-12-05T18:14:00.204Z,114.10
2022-12-05T18:16:32.297Z,156.00
2022-12-05T18:19:04.272Z,91.80
2022-12-05T18:21:36.292Z,87.00
2022-12-05T18:24:09.249Z,203.30
2022-12-05T18:26:41.503Z,124.50
2022-12-05T18:29:13.560Z,127.20
2022-12-05T18:31:45.540Z,93.10
2022-12-05T18:34:17.919Z,88.60
2022-12-05T18:36:49.871Z,67.00
2022-12-05T18:39:21.927Z,69.60
2022-12-05T18:41:54.454Z,75.70
2022-12-05T18:44:26.596Z,71.30
2022-12-05T18:46:58.527Z,126.40
2022-12-05T18:49:30.807Z,150.80
2022-12-05T18:52:03.126Z,97.70
2022-12-05T18:54:35.216Z,205.20
2022-12-05T18:57:07.234Z,108.60
2022-12-05T18:59:39.246Z,78.10
2022-12-05T19:02:12.065Z,70.50
2022-12-05T19:04:44.480Z,93.80
2022-12-05T19:07:16.468Z,89.30
2022-12-05T19:09:49.020Z,81.70
2022-12-05T19:12:21.112Z,111.40
2022-12-05T19:14:53.080Z,61.40
2022-12-05T19:17:25.197Z,55.50
2022-12-05T19:19:58.746Z,66.10
2022-12-05T19:22:31.484Z,61.90
2022-12-05T19:25:03.616Z,106.40
2022-12-05T19:27:35.531Z,70.30
2022-12-05T19:30:10.889Z,53.90
2022-12-05T19:32:42.944Z,51.80
2022-12-05T19:35:15.386Z,59.60
2022-12-05T19:37:47.300Z,53.80
2022-12-05T19:40:19.468Z,49.20
2022-12-05T19:42:51.379Z,45.00
2022-12-05T19:45:23.342Z,50.50
2022-12-05T19:47:55.254Z,51.70
2022-12-05T19:50:28.627Z,50.30
2022-12-05T19:53:01.076Z,61.60
2022-12-05T19:55:33.064Z,63.60
2022-12-05T19:58:04.900Z,74.30
2022-12-05T20:00:36.814Z,68.70
2022-12-05T20:03:12.136Z,73.40
2022-12-05T20:05:44.408Z,53.30
2022-12-05T20:08:16.395Z,45.10
2022-12-05T20:10:50.020Z,49.20
2022-12-05T20:13:45.933Z,44.80
2022-12-05T20:16:17.161Z,41.00
2022-12-05T20:18:49.945Z,40.10
2022-12-05T20:21:23.434Z,45.20
2022-12-05T20:23:55.817Z,44.30
2022-12-05T20:26:29.650Z,39.80
2022-12-05T20:29:02.765Z,43.30
2022-12-05T20:31:36.776Z,44.70
2022-12-05T20:34:10.662Z,50.20
2022-12-05T20:36:43.136Z,51.30
2022-12-05T20:39:17.094Z,43.70
2022-12-05T20:41:50.167Z,53.20
2022-12-05T20:44:22.514Z,46.60
2022-12-05T20:46:54.829Z,44.80
2022-12-05T20:49:27.049Z,44.70
2022-12-05T20:51:58.961Z,42.90
2022-12-05T20:54:30.925Z,47.50
2022-12-05T20:57:03.297Z,50.90
2022-12-05T20:59:35.340Z,46.40
2022-12-05T21:02:07.784Z,55.70
2022-12-05T21:04:41.139Z,48.10
2022-12-05T21:07:13.049Z,56.70
2022-12-05T21:09:44.931Z,42.70
2022-12-05T21:12:16.870Z,42.70
2022-12-05T21:14:48.759Z,45.30
2022-12-05T21:17:20.695Z,80.30
2022-12-05T21:19:52.633Z,68.10
2022-12-05T21:22:24.697Z,56.10
2022-12-05T21:24:56.638Z,64.60
2022-12-05T21:27:28.752Z,47.90
2022-12-05T21:30:00.954Z,55.60
2022-12-05T21:32:33.242Z,52.40
2022-12-05T21:35:06.037Z,87.90
2022-12-05T21:37:38.680Z,109.70
2022-12-05T21:40:12.566Z,58.90
2022-12-05T21:42:44.988Z,53.50
2022-12-05T21:45:17.181Z,71.30
2022-12-05T21:47:49.118Z,83.20
2022-12-05T21:50:21.107Z,79.80
2022-12-05T21:52:53.097Z,66.70
2022-12-05T21:55:25.137Z,78.00
2022-12-05T21:57:57.666Z,52.40
2022-12-05T22:00:29.551Z,125.90
2022-12-05T22:03:01.643Z,106.40
2022-12-05T22:05:34.373Z,114.90
2022-12-05T22:08:06.974Z,96.40
2022-12-05T22:10:39.171Z,121.10
2022-12-05T22:13:11.263Z,95.20
2022-12-05T22:15:43.291Z,47.70
2022-12-05T22:18:15.271Z,51.10
2022-12-05T22:20:47.231Z,45.50
2022-12-05T22:23:19.475Z,59.40
2022-12-05T22:25:59.579Z,79.20
2022-12-05T22:28:32.462Z,92.60
2022-12-05T22:31:06.247Z,70.80
2022-12-05T22:33:39.212Z,78.30
2022-12-05T22:36:13.935Z,63.50
2022-12-05T22:38:48.154Z,93.40
2022-12-05T22:43:57.788Z,64.50
2022-12-05T22:46:30.535Z,75.90
2022-12-05T22:49:04.122Z,113.40
2022-12-05T22:51:36.337Z,130.90
2022-12-05T22:54:08.791Z,100.40
2022-12-05T22:56:41.136Z,96.40
2022-12-05T22:59:14.927Z,106.00
2022-12-05T23:01:47.468Z,156.80
2022-12-05T23:04:20.349Z,89.90
2022-12-05T23:06:52.522Z,125.70
2022-12-05T23:09:25.231Z,82.40
2022-12-05T23:11:57.144Z,94.20
2022-12-05T23:14:29.079Z,69.50
2022-12-05T23:17:01.094Z,81.00
2022-12-05T23:19:32.979Z,75.80
2022-12-05T23:22:05.250Z,106.00
2022-12-05T23:24:37.341Z,69.30
2022-12-05T23:27:09.330Z,67.10
2022-12-05T23:29:42.705Z,68.10
2022-12-05T23:32:15.147Z,49.70
2022-12-05T23:34:47.271Z,62.70
2022-12-05T23:37:19.286Z,55.20
2022-12-05T23:39:51.297Z,54.20
2022-12-05T23:42:23.235Z,69.90
2022-12-05T23:44:55.484Z,143.40
2022-12-05T23:47:27.622Z,80.10
2022-12-05T23:49:59.772Z,69.40
2022-12-05T23:52:31.832Z,56.50
2022-12-05T23:55:03.901Z,59.10
2022-12-05T23:57:36.156Z,45.70
